createdAt,value
2023-01-05T00:01:42.608Z,13.37
2023-01-05T00:04:09.982Z,12.47
2023-01-05T00:06:37.583Z,14.33
2023-01-05T00:09:05.412Z,10.70
2023-01-05T00:11:50.506Z,19.37
2023-01-05T00:14:38.797Z,14.97
2023-01-05T00:17:24.728Z,11.07
2023-01-05T00:20:10.075Z,18.33
2023-01-05T00:22:45.948Z,13.13
2023-01-05T00:25:33.887Z,18.17
2023-01-05T00:28:00.721Z,13.87
2023-01-05T00:30:43.404Z,15.80
2023-01-05T00:33:11.356Z,17.60
2023-01-05T00:35:39.008Z,10.63
2023-01-05T00:38:07.087Z,13.80
2023-01-05T00:40:35.230Z,19.10
2023-01-05T00:43:02.051Z,13.27
2023-01-05T00:45:29.288Z,11.53
2023-01-05T00:47:56.280Z,12.67
2023-01-05T00:50:23.857Z,16.10
2023-01-05T00:52:50.704Z,16.33
2023-01-05T00:55:17.710Z,13.37
2023-01-05T00:57:45.287Z,17.43
2023-01-05T01:00:15.986Z,14.07
2023-01-05T01:02:42.921Z,14.97
2023-01-05T01:05:10.239Z,14.97
2023-01-05T01:07:37.052Z,14.83
2023-01-05T01:10:04.372Z,18.23
2023-01-05T01:12:31.080Z,12.87
2023-01-05T01:14:57.989Z,15.40
2023-01-05T01:17:25.128Z,13.67
2023-01-05T01:19:51.857Z,16.93
2023-01-05T01:22:18.581Z,18.00
2023-01-05T01:24:45.220Z,17.70
2023-01-05T01:27:12.101Z,19.03
2023-01-05T01:29:38.752Z,18.23
2023-01-05T01:32:05.566Z,18.57
2023-01-05T01:34:32.385Z,17.43
2023-01-05T01:37:00.218Z,19.03
2023-01-05T01:39:26.890Z,18.80
2023-01-05T01:41:53.653Z,18.23
2023-01-05T01:44:51.504Z,18.97
2023-01-05T01:47:36.599Z,14.80
2023-01-05T01:50:08.925Z,16.90
2023-01-05T01:52:36.218Z,19.03
2023-01-05T01:55:05.570Z,13.43
2023-01-05T01:57:33.639Z,21.13
2023-01-05T02:00:04.303Z,18.43
2023-01-05T02:02:31.134Z,19.37
2023-01-05T02:05:02.481Z,14.73
2023-01-05T02:07:33.804Z,13.70
2023-01-05T02:10:02.505Z,16.43
2023-01-05T02:12:29.127Z,14.43
2023-01-05T02:15:01.608Z,20.23
2023-01-05T02:17:39.620Z,17.77
2023-01-05T02:20:22.311Z,15.77
2023-01-05T02:23:31.859Z,18.47
2023-01-05T02:26:12.976Z,18.77
2023-01-05T02:28:39.692Z,15.43
2023-01-05T02:31:13.438Z,20.77
2023-01-05T02:33:56.640Z,20.17
2023-01-05T02:36:41.379Z,20.27
2023-01-05T02:39:17.647Z,17.47
2023-01-05T02:41:59.513Z,17.57
2023-01-05T02:44:30.356Z,24.83
2023-01-05T02:47:28.074Z,21.27
2023-01-05T02:50:04.192Z,16.00
2023-01-05T02:52:44.398Z,21.33
2023-01-05T02:55:16.054Z,18.50
2023-01-05T02:57:52.395Z,19.67
2023-01-05T03:00:22.894Z,17.13
2023-01-05T03:02:54.070Z,21.70
2023-01-05T03:05:28.848Z,17.77
2023-01-05T03:08:06.956Z,19.33
2023-01-05T03:11:15.966Z,14.80
2023-01-05T03:13:46.539Z,15.60
2023-01-05T03:16:22.946Z,23.03
2023-01-05T03:19:11.523Z,18.93
2023-01-05T03:21:57.217Z,18.77
2023-01-05T03:24:42.650Z,24.30
2023-01-05T03:27:29.139Z,23.83
2023-01-05T03:30:15.174Z,19.20
2023-01-05T03:33:09.213Z,21.93
2023-01-05T03:35:42.459Z,22.77
2023-01-05T03:38:35.167Z,17.10
2023-01-05T03:41:04.975Z,20.53
2023-01-05T03:43:36.577Z,21.20
2023-01-05T03:46:14.558Z,16.73
2023-01-05T03:48:41.429Z,20.37
2023-01-05T03:51:08.715Z,20.83
2023-01-05T03:53:35.444Z,15.60
2023-01-05T03:56:02.578Z,21.97
2023-01-05T03:58:29.361Z,19.23
2023-01-05T04:00:56.046Z,21.33
2023-01-05T04:03:27.777Z,16.73
2023-01-05T04:05:57.870Z,24.13
2023-01-05T04:08:24.635Z,18.90
2023-01-05T04:10:54.604Z,17.73
2023-01-05T04:13:21.330Z,20.10
2023-01-05T04:15:48.091Z,19.73
2023-01-05T04:18:14.978Z,20.30
2023-01-05T04:20:42.148Z,17.47
2023-01-05T04:23:08.851Z,24.47
2023-01-05T04:25:35.566Z,23.83
2023-01-05T04:28:02.276Z,17.73
2023-01-05T04:30:28.958Z,24.50
2023-01-05T04:32:55.708Z,18.40
2023-01-05T04:35:22.361Z,18.53
2023-01-05T04:37:49.011Z,21.17
2023-01-05T04:40:15.847Z,22.57
2023-01-05T04:42:42.499Z,25.13
2023-01-05T04:45:10.463Z,21.10
2023-01-05T04:47:37.267Z,19.80
2023-01-05T04:50:04.771Z,16.20
2023-01-05T04:52:31.647Z,19.97
2023-01-05T04:54:58.419Z,20.33
2023-01-05T04:57:25.224Z,21.33
2023-01-05T04:59:51.974Z,24.00
2023-01-05T05:02:18.805Z,18.00
2023-01-05T05:04:45.632Z,16.63
2023-01-05T05:07:12.316Z,19.17
2023-01-05T05:09:38.998Z,23.20
2023-01-05T05:12:05.874Z,19.30
2023-01-05T05:14:32.554Z,22.23
2023-01-05T05:16:59.336Z,21.27
2023-01-05T05:19:26.107Z,16.33
2023-01-05T05:21:52.924Z,22.63
2023-01-05T05:24:19.637Z,23.57
2023-01-05T05:26:46.312Z,23.37
2023-01-05T05:29:13.158Z,20.20
2023-01-05T05:31:39.875Z,22.50
2023-01-05T05:34:06.693Z,24.80
2023-01-05T05:36:33.548Z,22.63
2023-01-05T05:39:00.226Z,21.67
2023-01-05T05:41:26.902Z,16.70
2023-01-05T05:43:53.652Z,23.73
2023-01-05T05:46:20.352Z,20.23
2023-01-05T05:48:47.131Z,23.87
2023-01-05T05:51:14.755Z,19.33
2023-01-05T05:53:41.404Z,22.70
2023-01-05T05:56:08.416Z,22.83
2023-01-05T05:58:35.138Z,17.97
2023-01-05T06:01:01.929Z,25.80
2023-01-05T06:03:28.711Z,17.73
2023-01-05T06:05:55.552Z,17.13
2023-01-05T06:08:22.415Z,24.37
2023-01-05T06:10:50.409Z,22.83
2023-01-05T06:13:18.293Z,23.70
2023-01-05T06:15:45.014Z,27.63
2023-01-05T06:18:11.654Z,17.07
2023-01-05T06:20:38.349Z,21.40
2023-01-05T06:23:05.285Z,21.77
2023-01-05T06:25:32.674Z,18.07
2023-01-05T06:27:59.912Z,22.40
2023-01-05T06:30:27.446Z,21.67
2023-01-05T06:32:54.207Z,16.00
2023-01-05T06:35:20.880Z,24.83
2023-01-05T06:37:47.727Z,18.90
2023-01-05T06:40:14.642Z,24.10
2023-01-05T06:42:42.126Z,22.50
2023-01-05T06:45:13.362Z,19.40
2023-01-05T06:47:40.267Z,27.07
2023-01-05T06:50:07.757Z,25.37
2023-01-05T06:52:36.812Z,23.80
2023-01-05T06:55:04.313Z,26.07
2023-01-05T06:57:31.432Z,21.90
2023-01-05T06:59:58.152Z,24.83
2023-01-05T07:02:25.301Z,24.27
2023-01-05T07:04:52.378Z,18.67
2023-01-05T07:07:19.445Z,22.33
2023-01-05T07:09:49.327Z,20.87
2023-01-05T07:12:16.959Z,24.77
2023-01-05T07:14:44.087Z,29.27
2023-01-05T07:17:12.539Z,21.07
2023-01-05T07:19:39.639Z,23.73
2023-01-05T07:22:06.831Z,24.50
2023-01-05T07:24:33.561Z,20.73
2023-01-05T07:27:05.949Z,22.37
2023-01-05T07:29:36.090Z,20.20
2023-01-05T07:32:03.379Z,22.47
2023-01-05T07:34:30.226Z,24.33
2023-01-05T07:36:57.433Z,22.73
2023-01-05T07:39:24.172Z,21.63
2023-01-05T07:41:50.844Z,27.57
2023-01-05T07:44:18.350Z,23.50
2023-01-05T07:46:45.126Z,21.93
2023-01-05T07:49:11.774Z,21.57
2023-01-05T07:51:38.486Z,25.97
2023-01-05T07:54:05.142Z,20.57
2023-01-05T07:56:32.208Z,25.70
2023-01-05T07:58:59.310Z,22.73
2023-01-05T08:01:26.737Z,24.13
2023-01-05T08:03:53.899Z,24.10
2023-01-05T08:06:20.889Z,21.70
2023-01-05T08:08:48.462Z,25.63
2023-01-05T08:11:17.575Z,22.50
2023-01-05T08:14:00.606Z,21.50
2023-01-05T08:16:28.985Z,20.43
2023-01-05T08:18:56.179Z,17.13
2023-01-05T08:21:23.371Z,21.77
2023-01-05T08:23:53.289Z,27.47
2023-01-05T08:26:23.513Z,23.23
2023-01-05T08:28:51.574Z,23.53
2023-01-05T08:31:24.768Z,22.33
2023-01-05T08:33:55.254Z,24.63
2023-01-05T08:36:21.919Z,20.63
2023-01-05T08:38:52.237Z,23.90
2023-01-05T08:41:21.512Z,27.87
2023-01-05T08:43:52.443Z,26.93
2023-01-05T08:46:20.776Z,21.03
2023-01-05T08:48:51.977Z,24.13
2023-01-05T08:51:19.489Z,21.97
2023-01-05T08:53:46.995Z,28.70
2023-01-05T08:56:14.309Z,22.67
2023-01-05T08:58:41.679Z,25.43
2023-01-05T09:01:14.993Z,26.57
2023-01-05T09:03:42.329Z,27.07
2023-01-05T09:06:11.846Z,26.97
2023-01-05T09:08:40.579Z,19.93
2023-01-05T09:11:11.914Z,30.90
2023-01-05T09:13:39.624Z,29.37
2023-01-05T09:16:11.969Z,23.77
2023-01-05T09:18:40.362Z,25.43
2023-01-05T09:21:08.113Z,30.13
2023-01-05T09:23:35.700Z,23.90
2023-01-05T09:26:08.015Z,26.40
2023-01-05T09:28:36.436Z,28.30
2023-01-05T09:31:17.931Z,21.27
2023-01-05T09:33:45.451Z,24.20
2023-01-05T09:36:14.130Z,23.87
2023-01-05T09:38:46.830Z,20.23
2023-01-05T09:41:31.075Z,24.57
2023-01-05T09:44:00.633Z,27.00
2023-01-05T09:46:35.122Z,28.37
2023-01-05T09:49:05.776Z,22.97
2023-01-05T09:51:33.332Z,31.93
2023-01-05T09:54:01.355Z,24.13
2023-01-05T09:57:08.636Z,25.83
2023-01-05T09:59:41.942Z,25.37
2023-01-05T10:02:20.730Z,28.97
2023-01-05T10:04:48.771Z,27.97
2023-01-05T10:07:43.102Z,29.43
2023-01-05T10:10:40.471Z,23.63
2023-01-05T10:13:18.020Z,29.57
2023-01-05T10:15:54.390Z,24.93
2023-01-05T10:18:26.997Z,26.00
2023-01-05T10:21:05.568Z,24.67
2023-01-05T10:23:40.322Z,28.73
2023-01-05T10:26:20.166Z,24.80
2023-01-05T10:29:04.908Z,21.97
2023-01-05T10:31:55.517Z,24.63
2023-01-05T10:34:41.677Z,20.73
2023-01-05T10:37:17.671Z,29.47
2023-01-05T10:40:14.483Z,25.77
2023-01-05T10:42:56.168Z,22.97
2023-01-05T10:45:25.690Z,25.83
2023-01-05T10:47:53.001Z,24.07
2023-01-05T10:50:25.373Z,25.23
2023-01-05T10:52:54.197Z,27.37
2023-01-05T10:55:22.878Z,27.53
2023-01-05T10:57:49.658Z,23.07
2023-01-05T11:00:19.149Z,27.20
2023-01-05T11:02:58.030Z,22.80
2023-01-05T11:05:30.829Z,27.50
2023-01-05T11:08:01.238Z,26.13
2023-01-05T11:10:33.136Z,23.00
2023-01-05T11:13:05.246Z,22.37
2023-01-05T11:15:39.827Z,25.10
2023-01-05T11:18:07.722Z,19.30
2023-01-05T11:20:34.792Z,29.57
2023-01-05T11:23:01.907Z,23.73
2023-01-05T11:25:33.269Z,21.60
2023-01-05T11:28:13.728Z,19.60
2023-01-05T11:30:57.357Z,22.37
2023-01-05T11:33:28.341Z,22.77
2023-01-05T11:35:56.880Z,24.80
2023-01-05T11:38:29.329Z,26.87
2023-01-05T11:40:58.440Z,22.00
2023-01-05T11:43:28.231Z,24.63
2023-01-05T11:45:59.460Z,27.67
2023-01-05T11:48:32.469Z,18.97
2023-01-05T11:50:59.612Z,23.90
2023-01-05T11:53:39.064Z,18.53
2023-01-05T11:56:06.100Z,23.77
2023-01-05T11:58:47.429Z,20.70
2023-01-05T12:01:41.073Z,19.67
2023-01-05T12:04:30.917Z,22.67
2023-01-05T12:07:09.425Z,22.23
2023-01-05T12:09:45.300Z,17.80
2023-01-05T12:12:17.625Z,21.07
2023-01-05T12:15:22.105Z,18.57
2023-01-05T12:18:11.990Z,21.57
2023-01-05T12:21:05.731Z,21.17
2023-01-05T12:23:32.806Z,25.07
2023-01-05T12:25:59.528Z,17.07
2023-01-05T12:28:40.624Z,23.17
2023-01-05T12:34:17.740Z,19.60
2023-01-05T12:37:02.708Z,19.27
2023-01-05T12:39:44.369Z,17.93
2023-01-05T12:42:35.783Z,17.73
2023-01-05T12:45:17.651Z,16.03
2023-01-05T12:47:51.074Z,17.07
2023-01-05T12:50:39.781Z,18.30
2023-01-05T12:53:29.353Z,17.90
2023-01-05T12:58:42.835Z,19.20
2023-01-05T13:01:19.863Z,14.13
2023-01-05T13:04:27.025Z,14.00
2023-01-05T13:06:59.150Z,15.27
2023-01-05T13:09:29.458Z,17.83
2023-01-05T13:12:08.045Z,15.43
2023-01-05T13:14:39.988Z,16.17
2023-01-05T13:17:24.382Z,20.37
2023-01-05T13:20:02.370Z,19.37
2023-01-05T13:22:33.591Z,17.30
2023-01-05T13:25:05.644Z,23.30
2023-01-05T13:27:32.992Z,22.37
2023-01-05T13:30:02.511Z,22.47
2023-01-05T13:32:42.551Z,20.23
2023-01-05T13:35:09.725Z,20.90
2023-01-05T13:38:18.172Z,17.43
2023-01-05T13:40:48.770Z,17.43
2023-01-05T13:43:56.559Z,18.13
2023-01-05T13:46:26.565Z,17.13
2023-01-05T13:49:18.949Z,20.37
2023-01-05T13:51:45.993Z,18.27
2023-01-05T13:55:02.855Z,15.40
2023-01-05T13:57:40.978Z,21.10
2023-01-05T14:00:12.707Z,15.97
2023-01-05T14:02:54.038Z,19.60
2023-01-05T14:05:30.342Z,22.00
2023-01-05T14:07:59.960Z,26.83
2023-01-05T14:10:32.236Z,21.60
2023-01-05T14:12:59.923Z,22.40
2023-01-05T14:15:37.838Z,18.40
2023-01-05T14:18:04.884Z,18.47
2023-01-05T14:20:34.678Z,21.10
2023-01-05T14:23:30.089Z,19.83
2023-01-05T14:25:59.311Z,21.67
2023-01-05T14:28:28.774Z,16.97
2023-01-05T14:31:11.320Z,18.07
2023-01-05T14:33:53.642Z,21.90
2023-01-05T14:36:26.101Z,20.80
2023-01-05T14:38:53.197Z,28.83
2023-01-05T14:41:26.654Z,20.47
2023-01-05T14:44:16.378Z,20.43
2023-01-05T14:46:56.113Z,23.40
2023-01-05T14:49:34.575Z,16.97
2023-01-05T14:52:03.778Z,26.97
2023-01-05T14:54:37.720Z,20.57
2023-01-05T14:57:25.374Z,29.83
2023-01-05T15:00:16.035Z,26.27
2023-01-05T15:02:55.684Z,24.87
2023-01-05T15:05:23.286Z,23.13
2023-01-05T15:07:56.095Z,23.13
2023-01-05T15:10:23.176Z,24.57
2023-01-05T15:13:20.465Z,16.80
2023-01-05T15:15:47.644Z,22.00
2023-01-05T15:21:05.904Z,21.17
2023-01-05T15:24:09.759Z,21.33
2023-01-05T15:26:58.022Z,23.33
2023-01-05T15:29:27.237Z,19.93
2023-01-05T15:31:58.818Z,23.37
2023-01-05T15:34:25.879Z,26.93
2023-01-05T15:37:13.805Z,24.83
2023-01-05T15:39:49.637Z,19.63
2023-01-05T15:42:37.029Z,25.10
2023-01-05T15:45:06.635Z,23.07
2023-01-05T15:47:37.422Z,25.60
2023-01-05T15:50:04.664Z,26.20
2023-01-05T15:52:37.124Z,29.17
2023-01-05T15:55:18.998Z,25.33
2023-01-05T15:58:13.866Z,21.37
2023-01-05T16:00:40.972Z,22.20
2023-01-05T16:03:34.915Z,26.20
2023-01-05T16:06:24.345Z,20.90
2023-01-05T16:08:53.802Z,24.20
2023-01-05T16:11:31.667Z,22.13
2023-01-05T16:14:13.977Z,22.73
2023-01-05T16:16:53.574Z,33.60
2023-01-05T16:19:21.363Z,30.93
2023-01-05T16:22:02.785Z,22.03
2023-01-05T16:24:52.310Z,24.53
2023-01-05T16:27:23.593Z,23.90
2023-01-05T16:29:50.780Z,24.77
2023-01-05T16:32:36.702Z,25.70
2023-01-05T16:35:35.370Z,26.10
2023-01-05T16:38:03.236Z,24.73
2023-01-05T16:40:30.510Z,22.30
2023-01-05T16:42:57.209Z,22.03
2023-01-05T16:45:26.319Z,22.20
2023-01-05T16:47:53.313Z,25.20
2023-01-05T16:50:20.379Z,21.00
2023-01-05T16:52:53.125Z,24.83
2023-01-05T16:55:37.289Z,22.77
2023-01-05T16:58:29.802Z,18.40
2023-01-05T17:01:15.506Z,20.43
2023-01-05T17:03:43.605Z,20.97
2023-01-05T17:06:23.927Z,22.27
2023-01-05T17:08:51.852Z,22.60
2023-01-05T17:11:18.556Z,23.13
2023-01-05T17:13:50.005Z,26.33
2023-01-05T17:16:16.965Z,22.73
2023-01-05T17:18:44.090Z,19.97
2023-01-05T17:21:21.893Z,24.97
2023-01-05T17:23:53.918Z,29.20
2023-01-05T17:26:25.010Z,20.57
2023-01-05T17:28:54.835Z,25.37
2023-01-05T17:31:21.487Z,24.37
2023-01-05T17:33:48.617Z,23.60
2023-01-05T17:38:48.300Z,24.33
2023-01-05T17:41:16.159Z,23.37
2023-01-05T17:43:44.868Z,24.93
2023-01-05T17:46:17.754Z,24.97
2023-01-05T17:48:45.134Z,25.43
2023-01-05T17:51:12.129Z,21.70
2023-01-05T17:53:40.681Z,27.93
2023-01-05T17:56:07.683Z,28.70
2023-01-05T17:58:34.775Z,23.80
2023-01-05T18:01:02.000Z,22.70
2023-01-05T18:03:28.740Z,25.53
2023-01-05T18:05:55.820Z,23.40
2023-01-05T18:08:22.933Z,23.07
2023-01-05T18:10:50.040Z,30.50
2023-01-05T18:13:19.956Z,29.17
2023-01-05T18:15:51.632Z,24.70
2023-01-05T18:18:20.542Z,34.37
2023-01-05T18:20:47.639Z,29.00
2023-01-05T18:23:14.342Z,25.97
2023-01-05T18:25:41.434Z,24.43
2023-01-05T18:28:08.516Z,22.00
2023-01-05T18:30:35.910Z,22.83
2023-01-05T18:33:03.251Z,26.77
2023-01-05T18:35:30.332Z,23.80
2023-01-05T18:38:00.306Z,16.10
2023-01-05T18:40:28.418Z,27.60
2023-01-05T18:42:55.448Z,25.57
2023-01-05T18:45:32.124Z,26.17
2023-01-05T18:48:05.119Z,30.53
2023-01-05T18:50:31.818Z,26.97
2023-01-05T18:52:58.885Z,22.43
2023-01-05T18:55:25.936Z,19.57
2023-01-05T18:57:52.614Z,29.63
2023-01-05T19:00:19.832Z,28.03
2023-01-05T19:02:48.052Z,21.73
2023-01-05T19:05:14.739Z,27.43
2023-01-05T19:07:41.454Z,19.07
2023-01-05T19:10:08.573Z,22.07
2023-01-05T19:12:35.257Z,25.17
2023-01-05T19:15:01.998Z,18.53
2023-01-05T19:17:28.695Z,24.10
2023-01-05T19:19:57.660Z,22.07
2023-01-05T19:22:24.658Z,25.47
2023-01-05T19:24:51.536Z,19.93
2023-01-05T19:27:18.599Z,25.53
2023-01-05T19:29:45.426Z,23.40
2023-01-05T19:32:12.599Z,20.70
2023-01-05T19:34:40.120Z,25.10
2023-01-05T19:37:07.162Z,25.97
2023-01-05T19:39:34.870Z,20.87
2023-01-05T19:42:01.978Z,22.77
2023-01-05T19:44:29.102Z,25.67
2023-01-05T19:46:56.127Z,19.43
2023-01-05T19:49:25.985Z,26.47
2023-01-05T19:51:53.586Z,22.50
2023-01-05T19:54:22.576Z,20.57
2023-01-05T19:56:49.903Z,23.07
2023-01-05T19:59:21.504Z,18.43
2023-01-05T20:01:49.138Z,18.93
2023-01-05T20:04:16.356Z,21.40
2023-01-05T20:06:45.408Z,21.63
2023-01-05T20:09:15.412Z,24.23
2023-01-05T20:11:45.801Z,20.37
2023-01-05T20:14:15.591Z,20.13
2023-01-05T20:16:47.293Z,21.40
2023-01-05T20:19:15.614Z,23.00
2023-01-05T20:21:43.156Z,22.67
2023-01-05T20:24:18.521Z,16.97
2023-01-05T20:26:46.933Z,16.63
2023-01-05T20:29:15.269Z,19.60
2023-01-05T20:31:45.762Z,20.17
2023-01-05T20:34:18.521Z,19.77
2023-01-05T20:36:45.992Z,19.40
2023-01-05T20:39:15.996Z,14.80
2023-01-05T20:41:45.397Z,12.00
2023-01-05T20:44:13.542Z,11.43
2023-01-05T20:46:43.093Z,21.23
2023-01-05T20:49:10.344Z,13.70
2023-01-05T20:51:38.161Z,12.77
2023-01-05T20:54:08.923Z,13.57
2023-01-05T20:56:39.901Z,11.83
2023-01-05T20:59:13.110Z,14.77
2023-01-05T21:01:39.917Z,14.00
2023-01-05T21:04:06.815Z,17.03
2023-01-05T21:06:34.135Z,9.73
2023-01-05T21:09:01.661Z,11.90
2023-01-05T21:11:29.594Z,12.37
2023-01-05T21:13:57.829Z,12.03
2023-01-05T21:16:37.038Z,10.77
2023-01-05T21:19:04.371Z,8.97
2023-01-05T21:21:31.951Z,11.87
2023-01-05T21:23:58.777Z,9.23
2023-01-05T21:26:26.487Z,8.73
2023-01-05T21:28:54.300Z,10.37
2023-01-05T21:31:24.148Z,9.90
2023-01-05T21:33:51.796Z,9.27
2023-01-05T21:36:24.863Z,7.43
2023-01-05T21:39:01.125Z,8.30
2023-01-05T21:41:52.523Z,13.13
2023-01-05T21:44:20.171Z,10.30
2023-01-05T21:46:48.061Z,10.13
2023-01-05T21:49:15.368Z,11.70
2023-01-05T21:52:03.560Z,9.47
2023-01-05T21:54:49.543Z,8.73
2023-01-05T21:57:16.691Z,9.30
2023-01-05T21:59:43.807Z,7.20
2023-01-05T22:02:11.337Z,6.80
2023-01-05T22:04:38.268Z,9.97
2023-01-05T22:07:07.304Z,7.30
2023-01-05T22:09:38.038Z,7.73
2023-01-05T22:12:08.547Z,8.53
2023-01-05T22:14:37.030Z,6.53
2023-01-05T22:17:05.661Z,6.67
2023-01-05T22:19:32.642Z,10.13
2023-01-05T22:21:59.287Z,10.03
2023-01-05T22:24:26.007Z,5.63
2023-01-05T22:26:52.698Z,7.13
2023-01-05T22:29:19.410Z,5.63
2023-01-05T22:31:46.398Z,6.50
2023-01-05T22:34:13.353Z,6.73
2023-01-05T22:36:40.094Z,5.73
2023-01-05T22:39:06.866Z,5.90
2023-01-05T22:41:33.918Z,6.07
2023-01-05T22:44:02.497Z,7.27
2023-01-05T22:46:30.572Z,11.83
2023-01-05T22:48:58.217Z,13.80
2023-01-05T22:51:29.373Z,9.90
2023-01-05T22:53:56.909Z,5.30
2023-01-05T22:56:25.304Z,8.17
2023-01-05T22:58:52.387Z,8.40
2023-01-05T23:01:23.097Z,9.00
2023-01-05T23:03:51.071Z,7.57
2023-01-05T23:06:18.334Z,7.57
2023-01-05T23:08:46.349Z,7.87
2023-01-05T23:11:16.918Z,6.97
2023-01-05T23:13:43.963Z,5.87
2023-01-05T23:16:11.509Z,6.97
2023-01-05T23:18:39.456Z,9.57
2023-01-05T23:21:10.236Z,7.03
2023-01-05T23:23:37.837Z,7.07
2023-01-05T23:26:06.272Z,4.47
2023-01-05T23:28:33.880Z,3.43
2023-01-05T23:31:01.293Z,4.83
2023-01-05T23:33:29.621Z,4.20
2023-01-05T23:35:56.414Z,4.60
2023-01-05T23:38:24.828Z,4.80
2023-01-05T23:40:52.980Z,6.07
2023-01-05T23:43:22.821Z,4.30
2023-01-05T23:45:50.544Z,4.00
2023-01-05T23:48:17.431Z,6.43
2023-01-05T23:50:45.912Z,5.57
2023-01-05T23:53:13.131Z,4.83
2023-01-05T23:55:40.873Z,4.70
2023-01-05T23:58:08.663Z,5.20
